Lewisburg, WV

11:51 PM EST on November 21, 2019 (GMT -0500)
Greenbrier Valley

Weather History for KLWB - September, 2019

Change the Weather History Date:

Wednesday, September 4, 2019

  Actual Average Record
Temperature  
Mean Temperature 71 °F -  
Max Temperature 87 °F 79 °F 90 °F (2008)
Min Temperature 56 °F 56 °F 39 °F (1952)
Cooling Degree Days 6    
Growing Degree Days 21 (Base 50)    
Moisture  
Dew Point 61 °F    
Average Humidity 73    
Maximum Humidity 98    
Minimum Humidity 41    
Precipitation  
Precipitation 0.00 in - - ()
Sea Level Pressure  
Sea Level Pressure 30.10 in    
Wind  
Wind Speed 2 mph (WNW)    
Max Wind Speed 13 mph    
Max Gust Speed 17 mph    
Visibility 10 miles    
Events      
Averages and records for this station are not official NWS values.
T = Trace of Precipitation, MM = Missing Value Source: NWS Daily Summary

Daily Weather History Graph

Daily Weather History Graph

Search for Another Location

Airport or City:

Astronomy

Sep. 04, 2019 Rise Set
Actual Time 6:53 AM EDT 7:46 PM EDT
Civil Twilight 6:27 AM EDT 8:13 PM EDT
Nautical Twilight 5:55 AM EDT 8:45 PM EDT
Astronomical Twilight 5:22 AM EDT 9:17 PM EDT
Moon 12:47 PM EDT (9/4) 11:26 PM EDT (9/4)
Length of Visible Light 13h 46m
Length of Day
12h 52m
Waxing Crescent, 34% of the Moon is Illuminated
Sep 4
Waxing Crescent
Sep 5
First Quarter
Sep 14
Full
Sep 21
Last Quarter
Sep 28
New

Hourly Weather History & Observations

Time (EDT) Temp. Heat Index Dew Point Humidity Pressure Visibility Wind Dir Wind Speed Gust Speed Precip Events Conditions
12:15 AM 62.8 °F - 57.6 °F 83% 30.10 in 10.0 mi Calm Calm - N/A   Clear
12:35 AM 60.8 °F - 57.2 °F 88% 30.10 in 10.0 mi Calm Calm - N/A   Clear
12:55 AM 59.4 °F - 56.7 °F 91% 30.10 in 10.0 mi Calm Calm - N/A   Clear
1:15 AM 60.8 °F - 57.2 °F 88% 30.10 in 10.0 mi North 3.5 mph - N/A   Clear
1:35 AM 59.5 °F - 57.2 °F 92% 30.10 in 10.0 mi Calm Calm - N/A   Clear
1:55 AM 58.6 °F - 56.7 °F 93% 30.10 in 10.0 mi Calm Calm - N/A   Clear
2:15 AM 58.6 °F - 57.2 °F 95% 30.10 in 10.0 mi Calm Calm - N/A   Clear
2:35 AM 58.6 °F - 57.4 °F 96% 30.10 in 10.0 mi NNE 3.5 mph - N/A   Clear
2:55 AM 58.6 °F - 57.7 °F 97% 30.10 in 10.0 mi North 3.5 mph - N/A   Clear
3:15 AM 58.5 °F - 57.6 °F 97% 30.10 in 10.0 mi Calm Calm - N/A   Clear
3:35 AM 59.2 °F - 58.1 °F 96% 30.10 in 10.0 mi Calm Calm - N/A   Clear
3:55 AM 59.4 °F - 57.6 °F 94% 30.10 in 10.0 mi Calm Calm - N/A   Clear
4:15 AM 58.8 °F - 57.4 °F 95% 30.11 in 10.0 mi Calm Calm - N/A   Clear
4:35 AM 57.0 °F - 55.9 °F 96% 30.11 in 10.0 mi Calm Calm - N/A   Clear
4:55 AM 57.6 °F - 56.5 °F 96% 30.11 in 10.0 mi Calm Calm - N/A   Clear
5:15 AM 57.4 °F - 56.7 °F 97% 30.11 in 10.0 mi Calm Calm - N/A   Clear
5:35 AM 58.6 °F - 57.9 °F 97% 30.12 in 10.0 mi Calm Calm - N/A   Clear
5:55 AM 58.6 °F - 56.7 °F 93% 30.12 in 10.0 mi Calm Calm - N/A   Clear
6:15 AM 58.5 °F - 56.7 °F 94% 30.12 in 10.0 mi Calm Calm - N/A   Clear
6:35 AM 57.7 °F - 56.8 °F 97% 30.12 in 10.0 mi Calm Calm - N/A   Clear
6:55 AM 56.3 °F - 55.8 °F 98% 30.13 in 10.0 mi Calm Calm - N/A   Clear
7:15 AM 56.7 °F - 55.9 °F 97% 30.14 in 10.0 mi Calm Calm - N/A   Clear
7:35 AM 58.1 °F - 57.6 °F 98% 30.14 in 10.0 mi Calm Calm - N/A   Clear
7:55 AM 59.0 °F - 58.1 °F 97% 30.14 in 10.0 mi Calm Calm - N/A   Clear
8:15 AM 61.9 °F - 60.4 °F 95% 30.14 in 10.0 mi Calm Calm - N/A   Clear
8:35 AM 64.4 °F - 61.2 °F 89% 30.15 in 10.0 mi Calm Calm - N/A   Clear
8:55 AM 66.6 °F - 61.9 °F 85% 30.14 in 10.0 mi Calm Calm - N/A   Clear
9:15 AM 68.7 °F - 63.5 °F 83% 30.14 in 10.0 mi Calm Calm - N/A   Clear
9:35 AM 69.6 °F - 63.0 °F 79% 30.14 in 10.0 mi Calm Calm - N/A   Clear
9:55 AM 72.0 °F - 63.0 °F 73% 30.14 in 10.0 mi SW 4.6 mph - N/A   Clear
10:15 AM 73.6 °F - 62.8 °F 69% 30.13 in 10.0 mi SSW 4.6 mph - N/A   Clear
10:35 AM 75.6 °F - 62.6 °F 64% 30.14 in 10.0 mi SW 4.6 mph - N/A   Clear
10:55 AM 77.7 °F - 63.5 °F 61% 30.14 in 10.0 mi WSW 5.8 mph - N/A   Clear
11:15 AM 78.4 °F - 63.5 °F 60% 30.14 in 10.0 mi West 5.8 mph - N/A   Clear
11:35 AM 78.8 °F - 63.5 °F 59% 30.13 in 10.0 mi SW 6.9 mph - N/A   Clear
11:55 AM 79.9 °F - 63.5 °F 57% 30.12 in 10.0 mi Calm Calm - N/A   Clear
12:15 PM 81.5 °F 82.9 °F 63.7 °F 55% 30.12 in 10.0 mi West 5.8 mph - N/A   Clear
12:35 PM 81.5 °F 82.8 °F 63.3 °F 54% 30.11 in 10.0 mi West 3.5 mph - N/A   Clear
12:55 PM 83.1 °F 84.4 °F 64.0 °F 52% 30.10 in 10.0 mi WSW 6.9 mph - N/A   Clear
1:15 PM 84.4 °F 85.9 °F 64.4 °F 51% 30.10 in 10.0 mi West 5.8 mph - N/A   Clear
1:35 PM 82.8 °F 84.2 °F 64.0 °F 53% 30.10 in 10.0 mi West 4.6 mph - N/A   Scattered Clouds
1:55 PM 85.1 °F 86.4 °F 63.9 °F 49% 30.10 in 10.0 mi WNW 8.1 mph - N/A   Scattered Clouds
2:15 PM 85.5 °F 86.6 °F 63.7 °F 48% 30.09 in 10.0 mi NW 12.7 mph 17.3 mph N/A   Scattered Clouds
2:35 PM 86.0 °F 87.1 °F 63.7 °F 47% 30.08 in 10.0 mi North 4.6 mph - N/A   Clear
2:55 PM 85.3 °F 86.1 °F 62.8 °F 47% 30.08 in 10.0 mi NW 4.6 mph - N/A   Scattered Clouds
3:15 PM 86.2 °F 86.8 °F 62.8 °F 45% 30.07 in 10.0 mi NNW 10.4 mph - N/A   Scattered Clouds
3:35 PM 86.4 °F 87.0 °F 62.8 °F 45% 30.06 in 10.0 mi WNW 6.9 mph - N/A   Clear
3:55 PM 86.7 °F 87.3 °F 62.4 °F 44% 30.07 in 10.0 mi WSW 8.1 mph - N/A   Scattered Clouds
4:15 PM 86.4 °F 86.8 °F 61.9 °F 44% 30.06 in 10.0 mi NW 4.6 mph - N/A   Scattered Clouds
4:35 PM 86.2 °F 86.3 °F 61.5 °F 43% 30.06 in 10.0 mi West 6.9 mph - N/A   Clear
4:55 PM 86.9 °F 87.0 °F 61.5 °F 42% 30.06 in 10.0 mi West 8.1 mph - N/A   Clear
5:15 PM 86.7 °F 86.5 °F 60.1 °F 41% 30.05 in 10.0 mi NNW 5.8 mph - N/A   Clear
5:35 PM 86.4 °F 86.5 °F 61.7 °F 43% 30.06 in 10.0 mi NW 3.5 mph - N/A   Scattered Clouds
5:55 PM 85.8 °F 85.9 °F 60.6 °F 43% 30.06 in 10.0 mi WNW 5.8 mph - N/A   Clear
6:15 PM 85.1 °F 85.2 °F 61.2 °F 44% 30.06 in 10.0 mi WNW 4.6 mph - N/A   Clear
6:35 PM 84.0 °F 84.7 °F 62.6 °F 48% 30.06 in 10.0 mi North 4.6 mph - N/A   Clear
6:55 PM 83.3 °F 84.3 °F 63.1 °F 50% 30.07 in 10.0 mi NW 3.5 mph - N/A   Clear
7:15 PM 82.4 °F 83.7 °F 63.9 °F 53% 30.07 in 10.0 mi Calm Calm - N/A   Clear
7:35 PM 80.8 °F 82.2 °F 63.9 °F 56% 30.07 in 10.0 mi NW 4.6 mph - N/A   Clear
7:55 PM 79.0 °F - 64.4 °F 61% 30.07 in 10.0 mi Calm Calm - N/A   Clear
8:15 PM 78.4 °F - 63.9 °F 61% 30.07 in 10.0 mi Calm Calm - N/A   Clear
8:35 PM 77.5 °F - 64.0 °F 63% 30.08 in 10.0 mi Calm Calm - N/A   Clear
8:55 PM 72.5 °F - 64.6 °F 76% 30.09 in 10.0 mi Calm Calm - N/A   Clear
9:15 PM 72.1 °F - 64.6 °F 77% 30.09 in 10.0 mi Calm Calm - N/A   Clear
9:35 PM 70.3 °F - 64.6 °F 82% 30.09 in 10.0 mi Calm Calm - N/A   Clear
9:55 PM 73.2 °F - 64.8 °F 75% 30.08 in 10.0 mi Calm Calm - N/A   Clear
10:15 PM 67.6 °F - 64.4 °F 89% 30.08 in 10.0 mi Calm Calm - N/A   Clear
10:35 PM 68.9 °F - 64.2 °F 85% 30.08 in 10.0 mi Calm Calm - N/A   Clear
10:55 PM 71.6 °F - 64.9 °F 79% 30.08 in 10.0 mi Calm Calm - N/A   Clear
11:15 PM 70.0 °F - 64.6 °F 83% 30.07 in 10.0 mi Calm Calm - N/A   Clear
11:35 PM 68.5 °F - 64.2 °F 86% 30.07 in 10.0 mi NNE 3.5 mph - N/A   Clear
11:55 PM 65.7 °F - 63.5 °F 93% 30.07 in 10.0 mi Calm Calm - N/A   Clear